Time;durP1;ratioP1;P1;durP2;ratioP2;P2;SDS_P1;SDS_P2;PMS_P1;PMS_P2;Temp;Humidity;BMP_temperature;BMP_pressure;BME280_temperature;BME280_humidity;BME280_pressure;Samples;Min_cycle;Max_cycle;Signal;HPM_P1;HPM_P2
2023/07/11 00:00:04;;;;;;;5.43;2.43;;;18.00;74.10;;;;;;5077765;28;20305;-71
2023/07/11 00:02:30;;;;;;;7.17;2.40;;;18.00;74.40;;;;;;5092701;28;20761;-71
2023/07/11 00:05:00;;;;;;;4.33;1.90;;;18.00;74.50;;;;;;5070258;28;20277;-71
2023/07/11 00:07:26;;;;;;;4.77;2.13;;;18.00;74.70;;;;;;5073451;28;20043;-71
2023/07/11 00:09:53;;;;;;;4.23;2.33;;;18.00;74.80;;;;;;5090094;28;20285;-71
2023/07/11 00:12:19;;;;;;;5.07;2.27;;;17.90;74.90;;;;;;5072761;28;20317;-71
2023/07/11 00:14:45;;;;;;;7.17;2.17;;;17.90;74.90;;;;;;5075016;28;20285;-71
2023/07/11 00:17:12;;;;;;;5.27;2.00;;;17.90;74.90;;;;;;5070810;28;20630;-71
2023/07/11 00:19:56;;;;;;;6.27;2.23;;;17.80;75.10;;;;;;5089905;28;20780;-71
2023/07/11 00:22:24;;;;;;;6.33;2.13;;;17.80;75.30;;;;;;5075332;28;20686;-71
2023/07/11 00:24:50;;;;;;;3.27;1.97;;;17.70;75.60;;;;;;5088074;28;20365;-71
2023/07/11 00:27:17;;;;;;;4.87;1.67;;;17.70;75.70;;;;;;5072517;28;20378;-71
2023/07/11 00:29:44;;;;;;;6.67;2.20;;;17.70;75.80;;;;;;5074660;28;20749;-71
2023/07/11 00:32:10;;;;;;;6.87;2.23;;;17.80;75.70;;;;;;5074322;28;20289;-71
2023/07/11 00:34:36;;;;;;;6.03;2.60;;;17.80;75.60;;;;;;5088662;28;20772;-71
2023/07/11 00:37:02;;;;;;;5.47;2.83;;;17.90;75.60;;;;;;5090854;28;20280;-71
2023/07/11 00:39:29;;;;;;;5.27;2.97;;;17.90;75.40;;;;;;5088236;28;20036;-71
2023/07/11 00:41:55;;;;;;;4.83;2.50;;;17.90;75.40;;;;;;5087400;28;20036;-71
2023/07/11 00:44:22;;;;;;;6.50;2.93;;;17.90;75.30;;;;;;5074314;28;20274;-71
2023/07/11 00:46:49;;;;;;;7.83;2.87;;;17.90;75.00;;;;;;5085229;28;20296;-71
2023/07/11 00:49:17;;;;;;;6.07;2.93;;;18.00;74.90;;;;;;5092217;28;20796;-71
2023/07/11 00:51:59;;;;;;;7.33;3.13;;;17.90;74.60;;;;;;5091089;28;20273;-71
2023/07/11 00:54:30;;;;;;;6.10;2.80;;;17.90;74.40;;;;;;5064839;28;20371;-71
2023/07/11 00:56:58;;;;;;;8.43;3.00;;;17.80;74.50;;;;;;5074250;28;20281;-71
2023/07/11 00:59:24;;;;;;;9.37;3.33;;;17.80;74.50;;;;;;5090654;28;20292;-71
2023/07/11 01:01:58;;;;;;;7.40;3.00;;;17.70;74.50;;;;;;5090833;28;20290;-71
2023/07/11 01:04:24;;;;;;;7.90;3.00;;;17.60;74.60;;;;;;5060078;28;20036;-71
2023/07/11 01:06:50;;;;;;;9.83;3.00;;;17.60;74.70;;;;;;5074261;28;20117;-71
2023/07/11 01:09:16;;;;;;;3.73;2.93;;;17.50;75.00;;;;;;5087251;28;20140;-71
2023/07/11 01:12:04;;;;;;;7.07;3.40;;;17.40;75.30;;;;;;5090803;28;20039;-71
2023/07/11 01:14:29;;;;;;;4.83;2.80;;;17.40;75.60;;;;;;5074039;28;20044;-71
2023/07/11 01:16:55;;;;;;;3.67;2.40;;;17.40;76.10;;;;;;5076902;28;20288;-71
2023/07/11 01:19:23;;;;;;;4.53;2.70;;;17.30;76.30;;;;;;5077589;28;20035;-71
2023/07/11 01:21:50;;;;;;;6.03;3.30;;;17.30;76.70;;;;;;5073647;28;20035;-71
2023/07/11 01:24:16;;;;;;;5.37;2.97;;;17.20;76.90;;;;;;5090634;28;20277;-71
2023/07/11 01:26:42;;;;;;;10.63;3.70;;;17.20;77.10;;;;;;5086109;28;20312;-71
2023/07/11 01:29:08;;;;;;;6.90;3.93;;;17.20;77.60;;;;;;5072786;28;20293;-71
2023/07/11 01:31:34;;;;;;;7.23;3.60;;;17.10;78.00;;;;;;5090672;28;20043;-71
2023/07/11 01:34:05;;;;;;;4.87;3.60;;;17.10;78.40;;;;;;5085789;28;20278;-71
2023/07/11 01:36:32;;;;;;;8.23;4.20;;;17.00;79.20;;;;;;5097196;28;20710;-71
2023/07/11 01:38:59;;;;;;;7.00;3.80;;;17.00;79.60;;;;;;5090788;28;20663;-71
2023/07/11 01:41:25;;;;;;;7.33;3.93;;;17.00;79.70;;;;;;5073533;28;20313;-71
2023/07/11 01:43:53;;;;;;;7.23;3.93;;;17.00;79.80;;;;;;5076297;28;20313;-71
2023/07/11 01:46:18;;;;;;;8.13;3.90;;;17.00;80.00;;;;;;5100674;28;20333;-71
2023/07/11 01:48:44;;;;;;;8.27;4.33;;;16.90;80.20;;;;;;5073414;28;20361;-71
2023/07/11 01:51:10;;;;;;;6.67;4.57;;;16.90;80.20;;;;;;5090282;28;20051;-71
2023/07/11 01:53:36;;;;;;;9.17;4.50;;;16.80;80.60;;;;;;5090813;28;20502;-71
2023/07/11 01:56:04;;;;;;;7.40;3.60;;;16.80;81.00;;;;;;5090567;28;20281;-71
2023/07/11 01:58:31;;;;;;;5.33;3.30;;;16.80;81.30;;;;;;5077102;28;20043;-71
2023/07/11 02:00:58;;;;;;;8.27;3.60;;;16.80;81.40;;;;;;5083863;28;20301;-71
2023/07/11 02:03:24;;;;;;;7.00;2.83;;;16.90;81.50;;;;;;5075395;28;20786;-71
2023/07/11 02:05:51;;;;;;;6.73;3.10;;;16.90;81.20;;;;;;5096748;28;20281;-71
2023/07/11 02:08:17;;;;;;;7.43;3.20;;;16.90;81.00;;;;;;5089199;28;20645;-71
2023/07/11 02:10:43;;;;;;;5.53;3.50;;;16.90;81.00;;;;;;5087941;28;20423;-71
2023/07/11 02:13:10;;;;;;;5.23;3.00;;;17.00;81.00;;;;;;5090118;28;20360;-71
2023/07/11 02:15:35;;;;;;;7.97;2.80;;;17.00;81.20;;;;;;5088300;28;20043;-71
2023/07/11 02:18:01;;;;;;;8.03;2.80;;;17.00;81.20;;;;;;5087983;28;20313;-71
2023/07/11 02:20:27;;;;;;;8.33;3.33;;;17.00;81.10;;;;;;5083585;28;20035;-71
2023/07/11 02:22:53;;;;;;;5.37;3.07;;;16.90;80.90;;;;;;5075170;28;20507;-71
2023/07/11 02:25:19;;;;;;;7.57;3.40;;;17.00;81.00;;;;;;5065847;28;20036;-71
2023/07/11 02:27:44;;;;;;;7.23;2.87;;;17.00;81.30;;;;;;5089626;28;20123;-71
2023/07/11 02:30:10;;;;;;;5.73;2.97;;;16.90;81.20;;;;;;5071443;28;20059;-71
2023/07/11 02:32:36;;;;;;;5.37;3.07;;;17.00;81.20;;;;;;5071047;28;20811;-71
2023/07/11 02:35:02;;;;;;;7.27;2.97;;;17.00;81.30;;;;;;5071112;28;20382;-71
2023/07/11 02:37:27;;;;;;;9.10;3.37;;;17.00;81.20;;;;;;5071466;28;20089;-71
2023/07/11 02:39:53;;;;;;;6.60;3.37;;;17.00;81.30;;;;;;5085845;28;20047;-71
2023/07/11 02:42:19;;;;;;;7.90;3.90;;;17.00;81.30;;;;;;5100732;28;20038;-71
2023/07/11 02:44:44;;;;;;;6.77;3.53;;;17.00;81.40;;;;;;5100845;28;20078;-71
2023/07/11 02:47:11;;;;;;;7.10;3.30;;;17.00;81.50;;;;;;5072537;28;20028;-71
2023/07/11 02:49:38;;;;;;;4.30;3.30;;;17.00;81.50;;;;;;5090664;28;20143;-71
2023/07/11 02:52:06;;;;;;;6.80;3.23;;;16.90;81.40;;;;;;5118353;27;20292;-71
2023/07/11 02:54:33;;;;;;;7.60;2.73;;;16.90;81.10;;;;;;5071855;28;20300;-71
2023/07/11 02:56:59;;;;;;;7.87;3.10;;;16.90;80.80;;;;;;5090112;28;20277;-73
2023/07/11 02:59:24;;;;;;;6.77;3.37;;;16.90;80.70;;;;;;5074730;28;20296;-71
2023/07/11 03:01:50;;;;;;;6.10;3.00;;;16.90;80.50;;;;;;5097481;28;20032;-71
2023/07/11 03:04:16;;;;;;;5.83;2.70;;;16.90;80.20;;;;;;5085784;28;20027;-71
2023/07/11 03:06:41;;;;;;;7.77;2.80;;;16.90;79.90;;;;;;5093562;28;20123;-71
2023/07/11 03:09:07;;;;;;;7.43;2.90;;;16.90;79.80;;;;;;5089036;28;20100;-71
2023/07/11 03:11:33;;;;;;;7.70;3.30;;;16.80;79.60;;;;;;5076590;28;20050;-71
2023/07/11 03:13:58;;;;;;;5.93;2.80;;;16.80;79.50;;;;;;5083465;28;20035;-71
2023/07/11 03:16:24;;;;;;;5.80;2.93;;;16.80;79.60;;;;;;5083794;28;20031;-71
2023/07/11 03:18:50;;;;;;;8.10;3.00;;;16.80;79.70;;;;;;5101187;28;20050;-71
2023/07/11 03:21:15;;;;;;;5.50;3.33;;;16.80;79.80;;;;;;5090546;28;20039;-71
2023/07/11 03:23:41;;;;;;;6.63;3.37;;;16.80;80.00;;;;;;5072411;28;20491;-71
2023/07/11 03:26:07;;;;;;;7.90;3.70;;;16.80;79.90;;;;;;5079428;28;20043;-71
2023/07/11 03:28:32;;;;;;;7.70;3.23;;;16.70;80.10;;;;;;5078896;28;20095;-71
2023/07/11 03:30:58;;;;;;;10.20;3.80;;;16.70;80.10;;;;;;5073204;28;20048;-71
2023/07/11 03:33:24;;;;;;;7.23;3.40;;;16.70;80.20;;;;;;5090986;28;20043;-71
2023/07/11 03:35:51;;;;;;;4.43;3.30;;;16.70;80.20;;;;;;5098934;28;20740;-71
2023/07/11 03:38:17;;;;;;;7.10;3.63;;;16.70;80.40;;;;;;5092666;28;20478;-71
2023/07/11 03:40:43;;;;;;;7.37;4.10;;;16.60;80.60;;;;;;5087791;28;20282;-71
2023/07/11 03:43:09;;;;;;;7.90;4.00;;;16.70;80.70;;;;;;5090677;28;20285;-71
2023/07/11 03:45:34;;;;;;;7.63;3.80;;;16.60;81.10;;;;;;5078228;28;20035;-71
2023/07/11 03:48:00;;;;;;;7.50;4.37;;;16.60;81.30;;;;;;5079596;28;20136;-71
2023/07/11 03:50:26;;;;;;;5.87;3.57;;;16.60;81.40;;;;;;5088522;28;20047;-71
2023/07/11 03:52:51;;;;;;;5.40;3.87;;;16.60;81.40;;;;;;5092353;28;20440;-71
2023/07/11 03:55:17;;;;;;;9.40;4.33;;;16.60;81.50;;;;;;5092873;28;20035;-71
2023/07/11 03:57:43;;;;;;;6.73;4.43;;;16.60;81.80;;;;;;5072093;28;20063;-71
2023/07/11 04:00:09;;;;;;;9.03;4.33;;;16.60;81.70;;;;;;5077365;28;20343;-71
2023/07/11 04:02:35;;;;;;;5.50;3.87;;;16.70;82.10;;;;;;5097009;28;20065;-73
2023/07/11 04:05:01;;;;;;;11.00;4.00;;;16.70;82.30;;;;;;5092177;28;20343;-71
2023/07/11 04:07:27;;;;;;;7.83;4.17;;;16.70;82.50;;;;;;5092095;28;20136;-71
2023/07/11 04:09:52;;;;;;;9.13;4.50;;;16.70;82.50;;;;;;5095984;28;20101;-71
2023/07/11 04:12:18;;;;;;;7.17;3.80;;;16.70;82.70;;;;;;5072597;28;20043;-71
2023/07/11 04:14:44;;;;;;;7.23;4.03;;;16.70;83.10;;;;;;5073156;28;20466;-72
2023/07/11 04:17:09;;;;;;;7.57;3.83;;;16.70;82.90;;;;;;5075117;28;20074;-72
2023/07/11 04:19:35;;;;;;;8.13;4.23;;;16.70;83.10;;;;;;5089754;28;20713;-72
2023/07/11 04:22:01;;;;;;;6.03;3.87;;;16.80;83.00;;;;;;5089810;28;20129;-72
2023/07/11 04:24:27;;;;;;;5.90;3.80;;;16.70;83.50;;;;;;5092646;28;20074;-72
2023/07/11 04:26:52;;;;;;;7.80;3.90;;;16.80;83.70;;;;;;5093999;28;20100;-72
2023/07/11 04:29:18;;;;;;;7.87;4.60;;;16.70;83.60;;;;;;5072907;28;20055;-72
2023/07/11 04:31:44;;;;;;;7.50;4.23;;;16.80;83.40;;;;;;5074905;28;20466;-72
2023/07/11 04:34:09;;;;;;;9.20;4.47;;;16.80;83.50;;;;;;5089717;28;20123;-72
2023/07/11 04:36:35;;;;;;;9.80;4.47;;;16.80;83.80;;;;;;5089168;28;20031;-72
2023/07/11 04:39:01;;;;;;;8.93;4.00;;;16.80;84.20;;;;;;5073170;28;20031;-72
2023/07/11 04:41:27;;;;;;;10.30;5.00;;;16.80;84.30;;;;;;5080224;28;20046;-72
2023/07/11 04:43:53;;;;;;;9.47;4.53;;;16.80;84.40;;;;;;5082979;28;20574;-71
2023/07/11 04:46:18;;;;;;;7.67;5.17;;;16.80;84.70;;;;;;5079273;28;20286;-71
2023/07/11 04:48:45;;;;;;;8.40;4.90;;;16.80;85.10;;;;;;5069215;28;20039;-71
2023/07/11 04:51:11;;;;;;;6.60;4.70;;;16.80;85.40;;;;;;5065743;28;20057;-71
2023/07/11 04:53:38;;;;;;;9.50;4.97;;;16.90;85.60;;;;;;5077310;28;20285;-72
2023/07/11 04:56:06;;;;;;;7.47;4.47;;;17.10;85.60;;;;;;5076695;28;20073;-72
2023/07/11 04:58:34;;;;;;;9.23;4.90;;;17.40;86.10;;;;;;5082200;28;20294;-72
2023/07/11 05:01:05;;;;;;;10.20;4.67;;;17.70;84.90;;;;;;5083689;28;20285;-72
2023/07/11 05:03:31;;;;;;;8.70;4.83;;;18.10;84.50;;;;;;5079929;28;20277;-72
2023/07/11 05:05:57;;;;;;;6.40;4.40;;;18.50;83.80;;;;;;5085419;28;20780;-72
2023/07/11 05:08:24;;;;;;;10.43;5.50;;;18.90;82.30;;;;;;5093938;28;20126;-72
2023/07/11 05:11:13;;;;;;;8.53;4.73;;;19.10;81.30;;;;;;5077718;28;20313;-72
2023/07/11 05:13:39;;;;;;;9.17;4.97;;;19.40;81.50;;;;;;5081572;28;20342;-72
2023/07/11 05:16:08;;;;;;;8.10;4.50;;;19.70;79.30;;;;;;5068478;28;20540;-72
2023/07/11 05:18:40;;;;;;;10.80;5.20;;;19.80;78.60;;;;;;5071121;28;20344;-72
2023/07/11 05:21:09;;;;;;;11.80;4.80;;;19.90;78.60;;;;;;5071873;28;20360;-72
2023/07/11 05:23:35;;;;;;;12.33;5.33;;;20.20;77.80;;;;;;5089174;28;20282;-72
2023/07/11 05:26:01;;;;;;;9.13;4.80;;;20.30;77.40;;;;;;5085751;28;20357;-72
2023/07/11 05:28:27;;;;;;;9.60;5.00;;;20.20;77.70;;;;;;5089418;28;20728;-72
2023/07/11 05:30:55;;;;;;;9.23;5.07;;;20.40;77.50;;;;;;5076806;28;20047;-72
2023/07/11 05:33:22;;;;;;;8.37;5.63;;;20.40;77.30;;;;;;5073092;28;20134;-72
2023/07/11 05:36:31;;;;;;;7.13;5.00;;;20.30;77.00;;;;;;5085668;28;20039;-72
2023/07/11 05:39:12;;;;;;;11.40;5.30;;;20.10;77.30;;;;;;5068093;28;20069;-72
2023/07/11 05:41:44;;;;;;;7.77;4.73;;;20.00;78.00;;;;;;5101163;28;20032;-72
2023/07/11 05:44:12;;;;;;;9.47;4.90;;;19.80;78.20;;;;;;5082764;28;20418;-72
2023/07/11 05:46:38;;;;;;;9.07;5.30;;;19.80;78.80;;;;;;5074812;28;20104;-72
2023/07/11 05:49:04;;;;;;;10.00;5.07;;;20.00;79.20;;;;;;5082883;28;20100;-72
2023/07/11 05:51:30;;;;;;;8.57;4.73;;;20.70;78.30;;;;;;5067622;28;20039;-72
2023/07/11 05:53:56;;;;;;;7.60;4.87;;;21.10;75.60;;;;;;5083015;28;20078;-72
2023/07/11 05:56:22;;;;;;;7.97;4.77;;;21.10;74.80;;;;;;5079697;28;20071;-72
2023/07/11 05:58:50;;;;;;;7.83;4.90;;;21.30;75.00;;;;;;5083721;28;20032;-72
2023/07/11 06:01:18;;;;;;;9.80;5.47;;;21.70;73.50;;;;;;5093278;28;20039;-72
2023/07/11 06:03:47;;;;;;;10.27;4.90;;;22.00;72.20;;;;;;5090480;28;20258;-72
2023/07/11 06:06:14;;;;;;;7.77;4.93;;;22.30;71.30;;;;;;5095529;28;20131;-72
2023/07/11 06:08:41;;;;;;;9.50;4.93;;;22.60;71.40;;;;;;5087542;28;20044;-72
2023/07/11 06:11:08;;;;;;;9.60;5.70;;;22.90;70.40;;;;;;5089794;28;20043;-72
2023/07/11 06:13:36;;;;;;;7.97;5.27;;;23.10;69.20;;;;;;5094484;28;20035;-72
2023/07/11 06:16:12;;;;;;;10.07;5.73;;;23.00;68.90;;;;;;5074779;28;20048;-72
2023/07/11 06:18:39;;;;;;;11.23;6.13;;;22.80;69.40;;;;;;5094190;28;20119;-72
2023/07/11 06:21:07;;;;;;;11.97;6.63;;;22.70;69.70;;;;;;5092200;28;20120;-72
2023/07/11 06:23:33;;;;;;;7.90;6.20;;;22.50;70.00;;;;;;5099894;28;20093;-72
2023/07/11 06:25:59;;;;;;;14.13;7.57;;;22.50;70.40;;;;;;5077006;28;20024;-72
2023/07/11 06:28:25;;;;;;;11.27;7.73;;;22.50;70.50;;;;;;5084278;28;20126;-72
2023/07/11 06:30:54;;;;;;;13.63;7.57;;;22.50;70.20;;;;;;5092758;28;20481;-72
2023/07/11 06:33:22;;;;;;;12.00;6.93;;;22.40;70.00;;;;;;5096138;28;20327;-72
2023/07/11 06:35:51;;;;;;;12.27;7.70;;;22.50;70.20;;;;;;5094263;28;20394;-72
2023/07/11 06:38:20;;;;;;;11.87;7.30;;;22.90;70.10;;;;;;5087501;28;20122;-72
2023/07/11 06:40:53;;;;;;;11.10;6.63;;;23.50;68.40;;;;;;5098226;28;20164;-72
2023/07/11 06:43:20;;;;;;;11.00;6.80;;;23.90;67.00;;;;;;5093789;28;20114;-72
2023/07/11 06:45:47;;;;;;;8.33;6.40;;;24.00;65.90;;;;;;5082254;28;20043;-72
2023/07/11 06:48:15;;;;;;;10.00;6.43;;;23.90;66.50;;;;;;5092116;28;20035;-72
2023/07/11 06:50:41;;;;;;;12.30;6.63;;;23.60;66.70;;;;;;5091482;28;20043;-72
2023/07/11 06:53:07;;;;;;;7.13;6.10;;;23.50;67.20;;;;;;5091495;28;20130;-72
2023/07/11 06:55:34;;;;;;;10.20;6.10;;;23.40;67.50;;;;;;5074785;28;20082;-73
2023/07/11 06:57:59;;;;;;;10.97;6.07;;;23.20;67.90;;;;;;5075143;28;20701;-73
2023/07/11 07:00:26;;;;;;;13.10;6.80;;;23.10;68.40;;;;;;5069956;28;20048;-72
2023/07/11 07:02:52;;;;;;;11.70;6.67;;;23.00;68.90;;;;;;5067005;28;20792;-72
2023/07/11 07:05:18;;;;;;;9.87;6.13;;;23.10;68.80;;;;;;5073072;28;20040;-73
2023/07/11 07:07:43;;;;;;;8.73;6.00;;;23.20;68.90;;;;;;5061657;28;20514;-72
2023/07/11 07:10:09;;;;;;;12.10;6.37;;;23.20;68.30;;;;;;5073688;28;20046;-72
2023/07/11 07:12:35;;;;;;;10.67;5.80;;;23.20;69.10;;;;;;5075856;28;20035;-73
2023/07/11 07:15:01;;;;;;;10.40;6.03;;;23.30;69.10;;;;;;5088475;28;20044;-72
2023/07/11 07:17:26;;;;;;;8.63;5.67;;;23.30;69.20;;;;;;5069762;28;20104;-72
2023/07/11 07:19:52;;;;;;;8.27;4.70;;;23.40;68.90;;;;;;5088407;28;20549;-73
2023/07/11 07:22:18;;;;;;;8.37;5.30;;;23.40;69.20;;;;;;5088652;28;20063;-72
2023/07/11 07:24:44;;;;;;;6.70;4.73;;;23.40;69.00;;;;;;5089850;27;20028;-72
2023/07/11 07:27:11;;;;;;;7.83;5.00;;;23.40;68.70;;;;;;5084771;28;20036;-72
2023/07/11 07:29:37;;;;;;;5.13;4.33;;;23.40;69.00;;;;;;5083013;28;20122;-72
2023/07/11 07:32:03;;;;;;;8.73;4.87;;;23.40;68.30;;;;;;5065738;28;20079;-72
2023/07/11 07:34:29;;;;;;;8.17;4.80;;;23.40;67.40;;;;;;5064296;28;20089;-73
2023/07/11 07:36:55;;;;;;;8.10;4.70;;;23.40;67.90;;;;;;5085901;28;20052;-73
2023/07/11 07:39:20;;;;;;;13.37;5.37;;;23.40;68.00;;;;;;5071778;28;20742;-73
2023/07/11 07:41:46;;;;;;;9.03;4.77;;;23.60;68.10;;;;;;5076388;28;20033;-73
2023/07/11 07:44:13;;;;;;;7.23;4.17;;;23.80;68.10;;;;;;5075909;28;20196;-73
2023/07/11 07:46:39;;;;;;;6.23;4.23;;;24.00;67.00;;;;;;5052445;28;20032;-73
2023/07/11 07:49:04;;;;;;;8.30;4.60;;;24.10;66.00;;;;;;5058803;28;20044;-73
2023/07/11 07:51:30;;;;;;;6.93;4.03;;;24.20;65.20;;;;;;5073395;28;20044;-73
2023/07/11 07:53:56;;;;;;;9.20;4.30;;;24.40;65.30;;;;;;5068863;28;20041;-73
2023/07/11 07:56:23;;;;;;;6.17;4.13;;;24.60;64.80;;;;;;5069759;28;20047;-73
2023/07/11 07:58:50;;;;;;;7.03;4.30;;;24.80;63.70;;;;;;5085113;28;20040;-73
2023/07/11 08:01:19;;;;;;;7.40;3.73;;;25.00;62.90;;;;;;5066057;28;20044;-73
2023/07/11 08:03:44;;;;;;;6.97;3.93;;;25.00;61.80;;;;;;5069638;28;20066;-73
2023/07/11 08:06:12;;;;;;;6.57;4.33;;;25.00;61.90;;;;;;5086172;28;20044;-73
2023/07/11 08:08:39;;;;;;;7.57;4.17;;;25.10;62.50;;;;;;5071089;28;20040;-72
2023/07/11 08:11:06;;;;;;;7.47;4.40;;;25.10;61.80;;;;;;5078320;28;20051;-72
2023/07/11 08:13:34;;;;;;;9.63;4.60;;;25.20;61.80;;;;;;5084563;28;20047;-72
2023/07/11 08:16:00;;;;;;;7.03;4.47;;;25.00;60.50;;;;;;5079383;28;20487;-72
2023/07/11 08:18:28;;;;;;;7.60;4.60;;;25.00;61.30;;;;;;5083844;28;20532;-72
2023/07/11 08:20:53;;;;;;;9.23;4.63;;;25.00;61.30;;;;;;5065004;28;20653;-72
2023/07/11 08:23:19;;;;;;;8.10;4.13;;;25.10;61.80;;;;;;5071493;28;20039;-72
2023/07/11 08:25:49;;;;;;;7.73;3.77;;;25.20;60.20;;;;;;5069928;28;20484;-72
2023/07/11 08:28:15;;;;;;;8.10;4.27;;;25.40;60.60;;;;;;5072206;28;20142;-72
2023/07/11 08:30:41;;;;;;;7.63;3.80;;;25.50;61.20;;;;;;5091597;28;20047;-72
2023/07/11 08:33:07;;;;;;;7.90;3.70;;;25.70;61.40;;;;;;5086585;28;20078;-72
2023/07/11 08:35:33;;;;;;;7.73;4.17;;;25.80;60.90;;;;;;5067328;28;20055;-73
2023/07/11 08:37:59;;;;;;;7.67;3.70;;;25.90;60.00;;;;;;5065419;28;20032;-73
2023/07/11 08:40:29;;;;;;;5.57;3.60;;;25.90;59.90;;;;;;5069866;28;20204;-72
2023/07/11 08:42:56;;;;;;;8.63;3.57;;;25.90;60.30;;;;;;5069018;28;20036;-72
2023/07/11 08:45:29;;;;;;;5.70;2.97;;;25.90;60.20;;;;;;5073514;28;20096;-72
2023/07/11 08:48:04;;;;;;;6.87;3.10;;;25.90;58.60;;;;;;5076648;28;20036;-73
2023/07/11 08:50:40;;;;;;;5.53;3.03;;;25.90;58.90;;;;;;5072767;28;20089;-72
2023/07/11 08:53:15;;;;;;;7.70;3.00;;;25.90;59.60;;;;;;5085411;28;20521;-72
2023/07/11 08:55:49;;;;;;;10.47;2.97;;;26.00;58.30;;;;;;5085489;28;20043;-72
2023/07/11 08:58:28;;;;;;;6.47;2.80;;;26.10;58.20;;;;;;5087661;28;20471;-72
2023/07/11 09:00:53;;;;;;;7.10;2.60;;;26.10;57.80;;;;;;5077263;28;20040;-72
2023/07/11 09:03:27;;;;;;;5.83;2.40;;;26.10;57.00;;;;;;5075381;28;20403;-72
2023/07/11 09:06:07;;;;;;;9.47;2.70;;;26.10;56.70;;;;;;5073714;28;20037;-73
2023/07/11 09:08:39;;;;;;;7.77;2.70;;;26.10;56.20;;;;;;5069157;28;20062;-72
2023/07/11 09:11:29;;;;;;;6.70;2.50;;;26.10;56.60;;;;;;5081589;28;20077;-72
2023/07/11 09:14:43;;;;;;;9.03;3.20;;;26.20;56.40;;;;;;5083004;28;20173;-72
2023/07/11 09:17:37;;;;;;;7.10;2.50;;;26.30;57.00;;;;;;5077963;28;20113;-72
2023/07/11 09:20:18;;;;;;;8.57;2.67;;;26.40;57.30;;;;;;5079139;28;20105;-72
2023/07/11 09:22:58;;;;;;;7.13;2.80;;;26.50;56.30;;;;;;5092288;28;20119;-72
2023/07/11 09:25:39;;;;;;;5.77;2.80;;;26.40;54.30;;;;;;5078610;28;20127;-72
2023/07/11 09:28:21;;;;;;;9.87;2.90;;;26.30;55.60;;;;;;5070469;28;20040;-72
2023/07/11 09:30:55;;;;;;;6.10;2.67;;;26.30;55.40;;;;;;5074938;28;20473;-72
2023/07/11 09:33:34;;;;;;;9.20;3.00;;;26.30;55.30;;;;;;5074250;28;20048;-72
2023/07/11 09:36:02;;;;;;;6.03;2.60;;;26.10;55.30;;;;;;5082530;28;20044;-72
2023/07/11 09:39:05;;;;;;;9.43;2.90;;;25.90;56.20;;;;;;5081061;28;20483;-72
2023/07/11 09:41:45;;;;;;;7.00;2.90;;;25.90;57.40;;;;;;5074427;28;20042;-72
2023/07/11 09:44:11;;;;;;;5.03;2.23;;;26.10;57.70;;;;;;5076746;28;20073;-72
2023/07/11 09:46:37;;;;;;;8.47;2.93;;;26.10;56.30;;;;;;5064638;28;20077;-72
2023/07/11 09:49:07;;;;;;;7.57;2.90;;;26.00;57.00;;;;;;5072096;28;20041;-72
2023/07/11 09:51:41;;;;;;;9.97;3.03;;;26.00;57.20;;;;;;5063503;28;20155;-72
2023/07/11 09:54:23;;;;;;;8.33;2.73;;;26.00;57.20;;;;;;5085874;28;20503;-72
2023/07/11 09:56:50;;;;;;;8.13;3.17;;;26.00;57.00;;;;;;5091969;28;20043;-72
2023/07/11 09:59:17;;;;;;;9.83;3.10;;;26.10;57.10;;;;;;5083733;28;20036;-72
2023/07/11 10:01:43;;;;;;;8.70;3.00;;;26.10;56.70;;;;;;5073057;28;20050;-72
2023/07/11 10:04:15;;;;;;;6.30;2.80;;;26.10;57.20;;;;;;5084594;28;20032;-72
2023/07/11 10:06:52;;;;;;;8.80;3.03;;;26.20;58.20;;;;;;5089474;28;20044;-72
2023/07/11 10:09:23;;;;;;;9.73;2.90;;;26.30;57.50;;;;;;5085319;28;20043;-72
2023/07/11 10:11:55;;;;;;;8.17;2.80;;;26.40;57.20;;;;;;5092791;28;20499;-72
2023/07/11 10:14:26;;;;;;;5.40;2.70;;;26.50;57.30;;;;;;5075107;28;20043;-73
2023/07/11 10:16:56;;;;;;;7.80;3.00;;;26.70;57.30;;;;;;5073575;28;20386;-72
2023/07/11 10:19:22;;;;;;;8.67;3.27;;;26.70;57.20;;;;;;5079824;28;20039;-72
2023/07/11 10:21:49;;;;;;;9.20;3.30;;;26.70;56.50;;;;;;5071296;28;20040;-72
2023/07/11 10:24:24;;;;;;;6.73;2.63;;;26.70;55.70;;;;;;5080486;28;20047;-72
2023/07/11 10:26:58;;;;;;;7.13;3.30;;;26.70;56.20;;;;;;5091253;28;20042;-72
2023/07/11 10:29:27;;;;;;;8.05;3.25;;;26.70;55.10;;;;;;5072205;28;20055;-72
2023/07/11 10:31:57;;;;;;;6.43;3.00;;;26.70;55.50;;;;;;5080787;28;20059;-72
2023/07/11 10:34:34;;;;;;;8.93;3.07;;;26.70;56.00;;;;;;5076766;28;20028;-72
2023/07/11 10:37:09;;;;;;;5.47;3.00;;;26.70;56.60;;;;;;5082758;28;20679;-72
2023/07/11 10:39:47;;;;;;;6.75;2.92;;;26.90;55.70;;;;;;5074242;28;20039;-72
2023/07/11 10:42:28;;;;;;;8.47;3.17;;;27.00;55.70;;;;;;5077191;28;20044;-72
2023/07/11 10:45:14;;;;;;;9.57;3.50;;;27.00;54.90;;;;;;5084403;28;20507;-72
2023/07/11 10:47:47;;;;;;;8.23;3.50;;;26.90;55.60;;;;;;5081760;28;20039;-72
2023/07/11 10:50:46;;;;;;;8.57;3.20;;;27.00;55.40;;;;;;5081174;27;20048;-72
2023/07/11 10:53:35;;;;;;;9.50;3.60;;;27.10;55.20;;;;;;5091756;28;20074;-72
2023/07/11 10:56:24;;;;;;;8.83;3.70;;;27.20;55.20;;;;;;5101239;28;20082;-72
2023/07/11 10:58:51;;;;;;;7.10;2.97;;;27.20;55.50;;;;;;5061948;28;20040;-72
2023/07/11 11:01:39;;;;;;;12.43;4.03;;;27.40;55.20;;;;;;5074205;28;20047;-72
2023/07/11 11:04:20;;;;;;;10.17;3.90;;;27.50;54.70;;;;;;5081175;28;20036;-72
2023/07/11 11:07:02;;;;;;;10.00;4.27;;;27.60;54.40;;;;;;5079073;28;20032;-72
2023/07/11 11:09:29;;;;;;;8.90;3.90;;;27.50;53.60;;;;;;5107537;27;20044;-72
2023/07/11 11:12:04;;;;;;;11.43;3.77;;;27.40;53.10;;;;;;5071513;28;20462;-72
2023/07/11 11:15:07;;;;;;;8.60;3.25;;;27.40;53.10;;;;;;5081797;28;20150;-73
2023/07/11 11:18:04;;;;;;;10.87;3.67;;;27.40;53.80;;;;;;5082101;28;20101;-73
2023/07/11 11:21:11;;;;;;;7.00;3.10;;;27.40;54.30;;;;;;5081105;28;20357;-74
2023/07/11 11:23:39;;;;;;;9.03;2.93;;;27.40;54.00;;;;;;5089927;28;20062;-74
2023/07/11 11:26:34;;;;;;;9.33;2.80;;;27.40;54.60;;;;;;5076800;28;20040;-73
2023/07/11 11:29:07;;;;;;;10.23;2.90;;;27.50;53.90;;;;;;5086545;28;20059;-73
2023/07/11 11:31:38;;;;;;;6.20;2.63;;;27.70;53.30;;;;;;5075923;28;20573;-74
2023/07/11 11:34:03;;;;;;;8.50;2.97;;;27.80;53.30;;;;;;5082259;28;20106;-73
2023/07/11 11:36:30;;;;;;;11.03;3.03;;;27.70;53.40;;;;;;5074508;28;20244;-73
2023/07/11 11:39:05;;;;;;;7.23;2.53;;;27.60;52.00;;;;;;5077119;28;20448;-74
2023/07/11 11:41:46;;;;;;;8.43;3.07;;;27.30;52.30;;;;;;5075871;28;20071;-73
2023/07/11 11:44:19;;;;;;;10.10;2.47;;;27.00;52.00;;;;;;5081015;28;20044;-73
2023/07/11 11:46:46;;;;;;;7.97;2.20;;;26.70;52.80;;;;;;5070493;28;20036;-73
2023/07/11 11:49:14;;;;;;;6.83;2.47;;;26.50;53.90;;;;;;5084350;28;20130;-74
2023/07/11 11:51:41;;;;;;;5.67;2.37;;;26.50;53.90;;;;;;5080055;28;20532;-73
2023/07/11 11:54:18;;;;;;;9.97;2.57;;;26.50;54.00;;;;;;5097963;28;20108;-74
2023/07/11 11:56:49;;;;;;;8.53;2.73;;;26.50;54.10;;;;;;5090373;28;20040;-74
2023/07/11 11:59:29;;;;;;;6.67;2.50;;;26.40;55.50;;;;;;5082901;28;20032;-74
2023/07/11 12:01:57;;;;;;;7.70;2.43;;;26.20;55.10;;;;;;5075646;28;20526;-74
2023/07/11 12:04:34;;;;;;;8.47;2.40;;;26.20;54.90;;;;;;5094331;28;20044;-74
2023/07/11 12:07:03;;;;;;;6.20;1.70;;;26.10;56.10;;;;;;5075484;28;20508;-74
2023/07/11 12:09:49;;;;;;;7.60;2.30;;;26.20;57.60;;;;;;5093935;28;20035;-74
2023/07/11 12:12:18;;;;;;;9.60;2.10;;;26.10;56.80;;;;;;5099752;28;20533;-73
2023/07/11 12:14:58;;;;;;;7.20;1.60;;;25.80;57.00;;;;;;5076273;28;20483;-74
2023/07/11 12:17:33;;;;;;;5.27;1.77;;;25.70;57.10;;;;;;5086589;28;20440;-74
2023/07/11 12:20:01;;;;;;;5.20;1.40;;;25.70;55.50;;;;;;5072493;28;20047;-73
2023/07/11 12:22:50;;;;;;;4.33;1.30;;;25.60;55.10;;;;;;5072324;28;20040;-74
2023/07/11 12:25:29;;;;;;;5.97;1.43;;;25.50;56.00;;;;;;5029704;28;20039;-74
2023/07/11 12:28:01;;;;;;;4.40;1.20;;;25.60;55.50;;;;;;5066856;28;20530;-73
2023/07/11 12:30:29;;;;;;;4.63;1.13;;;25.60;56.60;;;;;;5084501;28;20460;-73
2023/07/11 12:32:56;;;;;;;5.13;1.17;;;25.70;55.70;;;;;;5094522;28;20048;-73
2023/07/11 12:35:33;;;;;;;3.67;0.90;;;25.60;55.70;;;;;;5087818;28;20065;-73
2023/07/11 12:38:04;;;;;;;2.47;0.97;;;25.70;57.20;;;;;;5091437;28;20036;-73
2023/07/11 12:40:49;;;;;;;4.00;0.73;;;25.80;57.60;;;;;;5106711;28;20052;-73
2023/07/11 12:43:17;;;;;;;;;;;25.90;59.10;;;;;;5103142;28;20464;-74
2023/07/11 12:45:49;;;;;;;3.43;0.60;;;26.00;59.90;;;;;;5078509;28;19916;-74
2023/07/11 12:48:18;;;;;;;2.87;0.50;;;26.20;60.60;;;;;;5110189;28;20378;-74
2023/07/11 12:50:50;;;;;;;4.63;0.53;;;26.20;59.80;;;;;;5082999;28;20090;-74
2023/07/11 12:53:16;;;;;;;3.03;0.83;;;26.20;60.00;;;;;;5109775;28;20122;-74
2023/07/11 12:55:48;;;;;;;4.10;0.90;;;26.20;59.80;;;;;;5089960;28;20135;-73
2023/07/11 12:58:25;;;;;;;1.97;0.97;;;26.10;59.30;;;;;;5104794;28;20508;-73